< < Back
Terminal Aerodrome Forecast


Current Version              Previous Versions:   1  2  3  4  5  6  7  8  9  

Terminal Aerodrome Forecast

522
FTUS42 KFFC 292300
TAFFTY
TAF
KFTY 292340Z 3000/3024 06004KT P6SM SCT008 BKN050
      TEMPO 3000/3002 BKN025
     FM300200 07003KT P6SM SCT025 SCT040
     FM300600 05003KT 4SM BR BKN007
     FM301300 04004KT P6SM SCT015
     FM301800 02006KT P6SM FEW040=



Latest METAR

038
SAUS70 KWBC 301200 RRN
MTRFTY
METAR KFTY 301153Z 00000KT 6SM BR OVC022 18/17 A2997 RMK AO2 SLP144
70008 T01780172 10194 20172 53009


USA.gov is the U.S. government's official web portal to all federal, state and local government web resources and services.